WHTO2: S Canadian Riv, Whitefield, OK

Data processed at Sun Jul 15 2018 23:46


All information presented herein is the property of the government of the United States of America and may be revised or deleted at any time without prior notice.
Dissemination of this information without the expressed written consent of the Public Affairs Office, Tulsa District U.S. Army Corps of Engineers is strictly prohibited.
These data are gathered electronically and, as presented, have not undergone any form of quality control. These data are not guaranteed to be valid or correct.
Go to home page.
Go to station list.

Upstream stations:

Downstream station:
Previous Day
Next Day
Current Day
    
SHEF ID:       WHTO2     Canadian River near Whitefield,
STATION TYPE:  

               PRECIP     STAGE  STAGE(2)  RIV-FLOW  BAT-LOAD
                   in        ft        ft       cfs      volt
              Ccp-Rev   Ccp-Rev   Ccp-Rev   Ccp-Rev   Ccp-Rev
(US/Central)
07/13 00:00      0.00      4.60      4.59      4492     12.60
07/13 01:00      0.00      4.11      4.09      3374     12.59
07/13 02:00      0.00      3.69      3.68      2546     12.57
07/13 03:00      0.00      3.35      3.32      1936     12.56
07/13 04:00      0.00      3.06      3.04      1435     12.54
07/13 05:00      0.00      2.82      2.80      1077     12.53
07/13 06:00      0.00      2.64      2.62       832     12.51
07/13 07:00      0.00      2.49      2.47       663     12.51
07/13 08:00      0.00      2.38      2.35       560     12.60
07/13 09:00      0.00      2.29      2.26       484     12.73
07/13 10:00      0.00      2.21      2.18       420     13.42
07/13 11:00      0.00      2.14      2.10       371     13.24
07/13 12:00      0.00      2.08      2.02       332     13.16
07/13 13:00      0.00      2.03      1.98       302     13.15
07/13 14:00      0.00      1.98      1.95       274     13.13
07/13 15:00      0.00      1.96      1.90       264     13.12
07/13 16:00      0.00      3.44      3.43      2097     12.97
07/13 17:00      0.00      5.29      5.32      6397     12.93
07/13 18:00      0.00      6.07      6.11      8926     12.93
07/13 19:00      0.00      6.43      6.47     10240     12.91
07/13 20:00      0.00      6.62      6.64     10978     12.93
07/13 21:00      0.00      6.43      6.45     10240     12.70
07/13 22:00      0.00      5.97      5.97      8580     12.63
07/13 23:00      0.00      5.38      5.37      6677     12.63